createdAt,value
2023-04-20T00:00:09.471Z,244.98
2023-04-20T00:02:38.315Z,251.15
2023-04-20T00:05:08.063Z,246.20
2023-04-20T00:07:36.708Z,256.95
2023-04-20T00:10:06.022Z,262.83
2023-04-20T00:12:34.392Z,270.95
2023-04-20T00:15:04.685Z,280.08
2023-04-20T00:17:33.284Z,281.80
2023-04-20T00:20:01.755Z,268.70
2023-04-20T00:22:30.831Z,301.90
2023-04-20T00:24:59.250Z,315.52
2023-04-20T00:27:27.621Z,301.20
2023-04-20T00:29:56.024Z,308.60
2023-04-20T00:32:26.008Z,321.13
2023-04-20T00:34:54.413Z,331.40
2023-04-20T00:37:25.529Z,312.38
2023-04-20T00:39:53.880Z,328.55
2023-04-20T00:42:22.257Z,338.38
2023-04-20T00:44:51.339Z,347.35
2023-04-20T00:47:19.702Z,377.33
2023-04-20T00:49:49.585Z,342.52
2023-04-20T00:52:18.098Z,378.02
2023-04-20T00:54:46.557Z,383.25
2023-04-20T00:57:16.670Z,373.42
2023-04-20T00:59:45.076Z,400.27
2023-04-20T01:02:13.531Z,350.60
2023-04-20T01:04:41.915Z,348.35
2023-04-20T01:07:11.753Z,402.95
2023-04-20T01:09:40.778Z,383.70
2023-04-20T01:12:10.429Z,375.58
2023-04-20T01:14:38.608Z,405.25
2023-04-20T01:17:07.054Z,397.92
2023-04-20T01:19:35.637Z,424.15
2023-04-20T01:22:04.070Z,444.50
2023-04-20T01:24:33.836Z,446.70
2023-04-20T01:27:02.558Z,461.50
2023-04-20T01:29:30.982Z,469.45
2023-04-20T01:31:59.293Z,458.02
2023-04-20T01:34:27.675Z,463.58
2023-04-20T01:36:56.006Z,473.20
2023-04-20T01:39:24.507Z,491.25
2023-04-20T01:41:54.279Z,496.45
2023-04-20T01:44:22.746Z,501.00
2023-04-20T01:46:51.162Z,461.60
2023-04-20T01:49:19.720Z,478.25
2023-04-20T01:51:48.219Z,497.58
2023-04-20T01:54:16.582Z,508.05
2023-04-20T01:56:44.907Z,488.23
2023-04-20T01:59:14.691Z,509.23
2023-04-20T02:01:43.169Z,506.73
2023-04-20T02:04:11.640Z,500.33
2023-04-20T02:06:40.020Z,494.85
2023-04-20T02:09:09.305Z,497.98
2023-04-20T02:11:37.838Z,496.48
2023-04-20T02:14:06.147Z,497.85
2023-04-20T02:16:37.772Z,493.42
2023-04-20T02:19:06.730Z,500.67
2023-04-20T02:21:35.404Z,529.83
2023-04-20T02:24:03.870Z,496.67
2023-04-20T02:26:32.259Z,513.97
2023-04-20T02:29:00.550Z,523.70
2023-04-20T02:31:28.949Z,553.25
2023-04-20T02:33:58.718Z,530.00
2023-04-20T02:36:27.028Z,579.38
2023-04-20T02:38:55.335Z,503.75
2023-04-20T02:41:23.650Z,537.85
2023-04-20T02:43:52.056Z,562.83
2023-04-20T02:46:21.321Z,511.70
2023-04-20T02:48:49.664Z,495.40
2023-04-20T02:51:19.355Z,561.35
2023-04-20T02:53:47.688Z,536.50
2023-04-20T02:56:16.087Z,554.28
2023-04-20T02:58:44.572Z,556.63
2023-04-20T03:01:12.993Z,516.50
2023-04-20T03:03:41.865Z,587.30
2023-04-20T03:06:10.292Z,522.90
2023-04-20T03:08:39.968Z,551.97
2023-04-20T03:11:08.322Z,565.88
2023-04-20T03:13:37.254Z,536.47
2023-04-20T03:16:06.605Z,550.40
2023-04-20T03:18:34.991Z,671.40
2023-04-20T03:21:03.345Z,544.35
2023-04-20T03:23:31.819Z,554.80
2023-04-20T03:26:01.623Z,574.50
2023-04-20T03:28:29.969Z,548.25
2023-04-20T03:30:58.595Z,573.42
2023-04-20T03:33:28.033Z,588.00
2023-04-20T03:35:56.445Z,595.20
2023-04-20T03:38:24.863Z,559.35
2023-04-20T03:40:53.310Z,575.28
2023-04-20T03:43:23.126Z,564.67
2023-04-20T03:45:51.478Z,588.75
2023-04-20T03:48:19.901Z,585.65
2023-04-20T03:50:48.301Z,584.47
2023-04-20T03:53:16.645Z,570.55
2023-04-20T03:55:45.000Z,551.35
2023-04-20T03:58:13.368Z,593.75
2023-04-20T04:00:43.136Z,563.33
2023-04-20T04:03:11.735Z,578.60
2023-04-20T04:05:40.406Z,584.85
2023-04-20T04:08:13.643Z,728.10
2023-04-20T04:10:45.190Z,590.38
2023-04-20T04:13:13.528Z,570.17
2023-04-20T04:15:43.298Z,586.03
2023-04-20T04:18:11.884Z,561.08
2023-04-20T04:20:40.278Z,593.95
2023-04-20T04:23:08.666Z,634.33
2023-04-20T04:25:39.873Z,577.30
2023-04-20T04:28:09.051Z,561.28
2023-04-20T04:30:37.428Z,638.90
2023-04-20T04:33:07.746Z,597.80
2023-04-20T04:35:36.218Z,584.28
2023-04-20T04:38:05.072Z,598.17
2023-04-20T04:40:53.987Z,577.00
2023-04-20T04:43:22.509Z,575.45
2023-04-20T04:45:50.990Z,653.85
2023-04-20T04:48:21.087Z,606.70
2023-04-20T04:50:49.620Z,564.35
2023-04-20T04:53:18.004Z,547.85
2023-04-20T04:55:46.648Z,560.60
2023-04-20T04:58:15.506Z,552.15
2023-04-20T05:00:44.021Z,546.83
2023-04-20T05:03:12.480Z,568.92
2023-04-20T05:05:42.179Z,563.95
2023-04-20T05:08:11.440Z,491.38
2023-04-20T05:10:39.892Z,371.52
2023-04-20T05:13:08.306Z,267.42
2023-04-20T05:15:36.746Z,280.33
2023-04-20T05:18:05.544Z,297.88
2023-04-20T05:20:34.151Z,352.83
2023-04-20T05:23:03.923Z,281.90
2023-04-20T05:25:32.909Z,545.08
2023-04-20T05:28:01.215Z,313.98
2023-04-20T05:30:29.887Z,290.38
2023-04-20T05:32:58.583Z,296.52
2023-04-20T05:35:27.286Z,288.23
2023-04-20T05:37:55.646Z,281.25
2023-04-20T05:40:25.786Z,378.67
2023-04-20T05:42:54.264Z,524.65
2023-04-20T05:45:22.882Z,388.10
2023-04-20T05:47:55.573Z,374.27
2023-04-20T05:50:27.922Z,257.02
2023-04-20T05:53:01.178Z,286.10
2023-04-20T05:55:31.277Z,278.13
2023-04-20T05:57:59.964Z,440.70
2023-04-20T06:00:28.655Z,247.18
2023-04-20T06:02:57.398Z,264.98
2023-04-20T06:05:26.471Z,430.30
2023-04-20T06:07:54.996Z,315.95
2023-04-20T06:10:23.421Z,369.38
2023-04-20T06:12:53.229Z,277.60
2023-04-20T06:15:21.573Z,542.83
2023-04-20T06:17:50.055Z,316.83
2023-04-20T06:20:19.818Z,307.05
2023-04-20T06:22:48.949Z,514.15
2023-04-20T06:25:17.414Z,359.80
2023-04-20T06:27:46.601Z,404.02
2023-04-20T06:30:17.270Z,299.40
2023-04-20T06:32:45.998Z,296.08
2023-04-20T06:35:14.597Z,301.33
2023-04-20T06:37:42.983Z,360.92
2023-04-20T06:40:13.190Z,545.70
2023-04-20T06:42:42.644Z,302.33
2023-04-20T06:45:12.375Z,353.05
2023-04-20T06:47:42.218Z,417.05
2023-04-20T06:50:11.520Z,311.45
2023-04-20T06:52:40.366Z,342.65
2023-04-20T06:55:09.759Z,348.10
2023-04-20T06:57:38.757Z,302.50
2023-04-20T07:00:09.806Z,523.08
2023-04-20T07:02:47.141Z,335.88
2023-04-20T07:05:15.966Z,544.88
2023-04-20T07:07:44.895Z,398.10
2023-04-20T07:10:15.092Z,366.98
2023-04-20T07:12:44.376Z,382.73
2023-04-20T07:15:12.869Z,307.60
2023-04-20T07:17:41.254Z,570.03
2023-04-20T07:20:12.174Z,376.23
2023-04-20T07:22:40.859Z,562.42
2023-04-20T07:25:10.244Z,326.35
2023-04-20T07:27:39.980Z,308.40
2023-04-20T07:30:12.632Z,323.33
2023-04-20T07:32:41.871Z,320.88
2023-04-20T07:35:12.251Z,308.50
2023-04-20T07:37:40.866Z,314.20
2023-04-20T07:40:10.418Z,302.63
2023-04-20T07:42:38.932Z,383.10
2023-04-20T07:45:08.736Z,304.92
2023-04-20T07:47:41.575Z,297.23
2023-04-20T07:50:12.343Z,283.65
2023-04-20T07:52:40.688Z,285.40
2023-04-20T07:55:14.104Z,264.63
2023-04-20T07:57:51.838Z,301.70
2023-04-20T08:00:21.266Z,372.88
2023-04-20T08:02:49.868Z,505.25
2023-04-20T08:05:21.206Z,283.63
2023-04-20T08:08:11.258Z,448.45
2023-04-20T08:10:54.613Z,282.80
2023-04-20T08:13:22.961Z,281.38
2023-04-20T08:15:51.379Z,314.58
2023-04-20T08:18:21.294Z,269.67
2023-04-20T08:20:51.682Z,571.47
2023-04-20T08:23:20.010Z,322.88
2023-04-20T08:25:48.411Z,323.77
2023-04-20T08:28:29.371Z,338.40
2023-04-20T08:31:01.760Z,380.90
2023-04-20T08:33:30.163Z,338.63
2023-04-20T08:35:59.860Z,372.35
2023-04-20T08:38:33.896Z,334.27
2023-04-20T08:41:02.763Z,334.20
2023-04-20T08:43:31.148Z,334.10
2023-04-20T08:46:00.938Z,328.23
2023-04-20T08:48:37.780Z,306.33
2023-04-20T08:51:07.991Z,438.63
2023-04-20T08:53:36.360Z,347.38
2023-04-20T08:56:05.280Z,279.60
2023-04-20T08:58:34.492Z,285.05
2023-04-20T09:01:02.941Z,578.28
2023-04-20T09:03:54.199Z,305.90
2023-04-20T09:06:53.016Z,403.70
2023-04-20T09:09:46.655Z,444.48
2023-04-20T09:15:48.190Z,304.67
2023-04-20T09:19:02.687Z,309.35
2023-04-20T09:24:49.233Z,334.13
2023-04-20T09:31:36.979Z,390.08
2023-04-20T09:34:31.397Z,384.20
2023-04-20T09:37:37.992Z,547.47
2023-04-20T09:40:42.185Z,450.58
2023-04-20T09:43:38.533Z,406.42
2023-04-20T09:46:08.102Z,459.50
2023-04-20T09:48:36.855Z,398.98
2023-04-20T09:51:05.507Z,506.73
2023-04-20T09:53:35.806Z,388.67
2023-04-20T09:56:04.316Z,506.05
2023-04-20T09:58:34.289Z,370.85
2023-04-20T10:01:03.349Z,399.88
2023-04-20T10:03:31.829Z,358.50
2023-04-20T10:06:00.247Z,373.55
2023-04-20T10:08:28.602Z,384.80
2023-04-20T10:10:58.270Z,409.23
2023-04-20T10:13:35.211Z,529.83
2023-04-20T10:16:03.637Z,405.45
2023-04-20T10:18:32.119Z,395.90
2023-04-20T10:21:09.372Z,460.05
2023-04-20T10:23:47.912Z,366.23
2023-04-20T10:26:17.790Z,372.38
2023-04-20T10:28:46.422Z,565.05
2023-04-20T10:31:17.216Z,536.17
2023-04-20T10:33:56.569Z,414.13
2023-04-20T10:36:29.366Z,471.58
2023-04-20T10:38:58.020Z,544.63
2023-04-20T10:41:27.948Z,457.45
2023-04-20T10:43:56.283Z,527.50
2023-04-20T10:46:25.469Z,462.98
2023-04-20T10:48:55.031Z,439.17
2023-04-20T10:51:23.878Z,420.67
2023-04-20T10:54:02.393Z,370.88
2023-04-20T10:56:38.952Z,484.77
2023-04-20T10:59:11.339Z,324.77
2023-04-20T11:01:39.908Z,319.60
2023-04-20T11:04:09.598Z,383.17
2023-04-20T11:06:39.587Z,626.53
2023-04-20T11:09:20.069Z,344.15
2023-04-20T11:12:00.883Z,306.35
2023-04-20T11:14:32.848Z,363.50
2023-04-20T11:17:02.574Z,339.55
2023-04-20T12:08:13.340Z,540.25
2023-04-20T12:11:27.772Z,536.53
2023-04-20T12:14:48.909Z,667.95
2023-04-20T12:17:04.508Z,559.70
2023-04-20T12:19:33.060Z,632.75
2023-04-20T12:22:01.568Z,568.60
2023-04-20T12:24:31.450Z,533.75
2023-04-20T12:27:00.040Z,676.33
2023-04-20T12:29:54.638Z,701.03
2023-04-20T12:32:24.554Z,560.80
2023-04-20T12:34:52.997Z,622.67
2023-04-20T12:37:21.643Z,494.33
2023-04-20T12:39:51.543Z,547.67
2023-04-20T12:42:20.108Z,581.55
2023-04-20T12:44:48.524Z,508.00
2023-04-20T12:47:17.072Z,581.38
2023-04-20T12:49:51.619Z,522.13
2023-04-20T12:52:20.503Z,535.58
2023-04-20T12:54:50.730Z,482.20
2023-04-20T12:58:06.269Z,491.55
2023-04-20T13:00:34.767Z,511.73
2023-04-20T13:03:03.501Z,724.88
2023-04-20T13:05:32.218Z,488.23
2023-04-20T13:08:24.343Z,542.83
2023-04-20T13:10:54.091Z,447.95
2023-04-20T13:13:31.899Z,496.88
2023-04-20T13:16:00.312Z,438.70
2023-04-20T13:18:28.717Z,473.85
2023-04-20T13:20:57.086Z,434.65
2023-04-20T13:23:25.791Z,478.55
2023-04-20T13:26:02.524Z,535.70
2023-04-20T13:28:36.030Z,536.70
2023-04-20T13:31:04.666Z,633.67
2023-04-20T13:33:33.625Z,519.42
2023-04-20T13:36:02.312Z,581.33
2023-04-20T13:38:30.897Z,476.23
2023-04-20T13:41:00.866Z,446.75
2023-04-20T13:43:29.333Z,471.92
2023-04-20T13:45:58.033Z,415.55
2023-04-20T13:48:26.558Z,434.10
2023-04-20T13:50:55.644Z,425.40
2023-04-20T13:53:24.679Z,456.02
2023-04-20T13:55:53.460Z,463.70
2023-04-20T13:58:51.603Z,496.80
2023-04-20T14:01:20.089Z,459.10
2023-04-20T14:04:05.714Z,479.60
2023-04-20T14:06:37.182Z,723.85
2023-04-20T14:09:08.307Z,535.08
2023-04-20T14:11:37.051Z,525.35
2023-04-20T14:14:07.252Z,533.90
2023-04-20T14:16:43.061Z,483.67
2023-04-20T14:19:11.724Z,548.35
2023-04-20T14:21:41.209Z,551.70
2023-04-20T14:24:11.732Z,518.83
2023-04-20T14:26:51.017Z,652.30
2023-04-20T14:29:49.867Z,651.92
2023-04-20T14:32:19.692Z,511.23
2023-04-20T14:34:53.549Z,619.10
2023-04-20T14:37:23.339Z,581.72
2023-04-20T14:39:52.015Z,611.40
2023-04-20T14:42:20.896Z,552.28
2023-04-20T14:44:50.815Z,592.20
2023-04-20T14:47:20.675Z,673.30
2023-04-20T14:49:49.072Z,662.95
2023-04-20T14:52:17.587Z,563.08
2023-04-20T14:54:47.259Z,597.60
2023-04-20T14:57:15.836Z,551.90
2023-04-20T14:59:44.327Z,707.45
2023-04-20T15:02:14.510Z,574.08
2023-04-20T15:04:43.193Z,614.88
2023-04-20T15:07:12.184Z,560.22
2023-04-20T15:09:40.563Z,570.28
2023-04-20T15:12:09.184Z,674.55
2023-04-20T15:14:37.520Z,592.70
2023-04-20T15:17:06.148Z,554.15
2023-04-20T15:19:36.539Z,658.00
2023-04-20T15:22:04.968Z,607.42
2023-04-20T15:24:33.575Z,589.92
2023-04-20T15:27:03.961Z,694.17
2023-04-20T15:29:34.504Z,575.55
2023-04-20T15:32:03.561Z,589.30
2023-04-20T15:34:31.958Z,720.58
2023-04-20T15:37:03.073Z,597.75
2023-04-20T15:39:34.539Z,596.80
2023-04-20T15:42:03.474Z,638.72
2023-04-20T15:44:32.084Z,585.67
2023-04-20T15:47:01.553Z,627.83
2023-04-20T15:49:29.949Z,778.10
2023-04-20T15:51:58.352Z,600.03
2023-04-20T15:54:28.747Z,589.00
2023-04-20T15:56:57.397Z,670.90
2023-04-20T15:59:27.702Z,594.83
2023-04-20T16:01:56.752Z,703.38
2023-04-20T16:04:26.290Z,604.92
2023-04-20T16:06:59.109Z,616.58
2023-04-20T16:09:29.282Z,690.72
2023-04-20T16:11:57.777Z,607.33
2023-04-20T16:14:27.098Z,705.40
2023-04-20T16:17:11.237Z,616.47
2023-04-20T16:19:40.917Z,597.08
2023-04-20T16:22:15.776Z,718.63
2023-04-20T16:24:49.384Z,642.50
2023-04-20T16:27:22.566Z,599.95
2023-04-20T16:29:51.704Z,765.53
2023-04-20T16:32:46.707Z,587.30
2023-04-20T16:35:33.321Z,619.15
2023-04-20T16:41:21.714Z,597.83
2023-04-20T16:44:08.562Z,782.58
2023-04-20T16:47:31.812Z,695.70
2023-04-20T16:50:40.902Z,566.78
2023-04-20T16:53:11.330Z,583.42
2023-04-20T16:55:41.715Z,612.72
2023-04-20T16:58:11.913Z,583.60
2023-04-20T17:00:40.572Z,708.88
2023-04-20T17:03:22.149Z,593.22
2023-04-20T17:05:51.312Z,636.35
2023-04-20T17:08:24.609Z,595.65
2023-04-20T17:11:04.335Z,567.83
2023-04-20T17:13:38.605Z,590.38
2023-04-20T17:16:20.272Z,731.08
2023-04-20T17:21:49.848Z,739.13
2023-04-20T17:24:18.563Z,613.28
2023-04-20T17:26:47.302Z,583.08
2023-04-20T17:29:17.178Z,630.55
2023-04-20T17:31:46.665Z,613.65
2023-04-20T17:34:23.258Z,614.45
2023-04-20T17:36:51.625Z,599.40
2023-04-20T17:39:25.919Z,634.00
2023-04-20T17:41:54.342Z,636.50
2023-04-20T17:45:12.688Z,571.22
2023-04-20T17:47:41.154Z,594.95
2023-04-20T17:50:11.701Z,575.83
2023-04-20T17:53:00.401Z,605.50
2023-04-20T17:55:58.687Z,669.45
2023-04-20T17:58:27.321Z,694.15
2023-04-20T18:00:57.175Z,590.95
2023-04-20T18:03:25.742Z,597.92
2023-04-20T18:05:54.520Z,579.95
2023-04-20T18:08:25.241Z,591.40
2023-04-20T18:10:55.698Z,595.63
2023-04-20T18:13:24.449Z,712.53
2023-04-20T18:15:52.875Z,596.10
2023-04-20T18:18:23.255Z,598.50
2023-04-20T18:20:51.875Z,595.58
2023-04-20T18:23:35.665Z,583.58
2023-04-20T18:26:04.364Z,615.15
2023-04-20T18:28:35.966Z,587.00
2023-04-20T18:31:40.868Z,602.00
2023-04-20T18:34:21.430Z,582.15
2023-04-20T18:36:49.970Z,614.20
2023-04-20T18:39:18.452Z,595.53
2023-04-20T18:41:46.919Z,591.95
2023-04-20T18:44:15.298Z,614.92
2023-04-20T18:46:44.050Z,607.15
2023-04-20T18:49:14.062Z,609.03
2023-04-20T18:51:42.538Z,582.65
2023-04-20T18:54:11.360Z,621.15
2023-04-20T18:56:40.571Z,616.92
2023-04-20T18:59:10.693Z,597.08
2023-04-20T19:01:40.655Z,603.35
2023-04-20T19:04:09.443Z,612.85
2023-04-20T19:06:43.744Z,623.88
2023-04-20T19:09:12.310Z,634.90
2023-04-20T19:11:40.914Z,627.85
2023-04-20T19:14:10.067Z,623.08
2023-04-20T19:16:38.823Z,634.58
2023-04-20T19:19:07.749Z,610.65
2023-04-20T19:21:36.674Z,643.38
2023-04-20T19:24:06.949Z,620.17
2023-04-20T19:26:35.460Z,622.28
2023-04-20T19:29:03.837Z,618.25
2023-04-20T19:31:37.871Z,620.40
2023-04-20T19:34:06.883Z,606.83
2023-04-20T19:36:35.492Z,625.03
2023-04-20T19:39:10.386Z,606.95
2023-04-20T19:41:39.662Z,611.10
2023-04-20T19:44:10.625Z,604.85
2023-04-20T19:46:40.595Z,599.47
2023-04-20T19:49:09.177Z,587.85
2023-04-20T19:51:37.549Z,594.58
2023-04-20T19:54:07.488Z,604.78
2023-04-20T19:56:37.026Z,585.65
2023-04-20T19:59:05.644Z,609.05
2023-04-20T20:01:34.197Z,585.75
2023-04-20T20:04:02.746Z,584.45
2023-04-20T20:06:32.116Z,597.42
2023-04-20T20:09:00.546Z,584.65
2023-04-20T20:11:30.518Z,577.80
2023-04-20T20:13:58.881Z,612.13
2023-04-20T20:16:29.204Z,594.65
2023-04-20T20:18:59.775Z,598.90
2023-04-20T20:21:28.178Z,598.90
2023-04-20T20:23:56.652Z,589.05
2023-04-20T20:26:25.064Z,602.78
2023-04-20T20:28:54.806Z,617.97
2023-04-20T20:31:23.304Z,580.67
2023-04-20T20:33:51.990Z,617.85
2023-04-20T20:36:20.343Z,600.15
2023-04-20T20:38:48.827Z,584.47
2023-04-20T20:41:18.366Z,581.97
2023-04-20T20:43:47.227Z,601.25
2023-04-20T20:46:17.348Z,596.67
2023-04-20T20:48:45.757Z,599.83
2023-04-20T20:51:16.225Z,588.85
2023-04-20T20:53:44.581Z,587.78
2023-04-20T20:56:50.247Z,651.92
2023-04-20T20:59:19.103Z,592.03
2023-04-20T21:01:49.359Z,628.38
2023-04-20T21:04:17.813Z,616.83
2023-04-20T21:06:46.263Z,610.78
2023-04-20T21:09:15.459Z,608.80
2023-04-20T21:11:43.817Z,598.67
2023-04-20T21:14:12.182Z,583.85
2023-04-20T21:16:40.810Z,611.08
2023-04-20T21:19:11.168Z,589.95
2023-04-20T21:21:39.539Z,647.55
2023-04-20T21:24:08.130Z,618.00
2023-04-20T21:26:36.565Z,640.75
2023-04-20T21:29:29.038Z,613.42
2023-04-20T21:31:57.815Z,616.80
2023-04-20T21:34:27.754Z,614.58
2023-04-20T21:37:03.334Z,651.38
2023-04-20T21:39:31.814Z,639.92
2023-04-20T21:42:00.493Z,645.03
2023-04-20T21:44:29.403Z,634.90
2023-04-20T21:46:57.758Z,632.78
2023-04-20T21:49:27.453Z,650.65
2023-04-20T21:51:55.833Z,625.70
2023-04-20T21:54:24.196Z,637.38
2023-04-20T21:56:52.712Z,639.90
2023-04-20T21:59:21.186Z,635.17
2023-04-20T22:01:49.695Z,647.38
2023-04-20T22:04:19.703Z,659.25
2023-04-20T22:06:50.145Z,644.45
2023-04-20T22:09:18.918Z,660.67
2023-04-20T22:11:47.835Z,658.03
2023-04-20T22:14:16.456Z,651.92
2023-04-20T22:16:44.845Z,662.20
2023-04-20T22:19:13.322Z,660.92
2023-04-20T22:21:42.953Z,641.28
2023-04-20T22:24:12.715Z,653.40
2023-04-20T22:26:41.938Z,647.67
2023-04-20T22:29:10.418Z,662.58
2023-04-20T22:31:38.848Z,660.65
2023-04-20T22:34:07.314Z,673.83
2023-04-20T22:36:36.075Z,653.83
2023-04-20T22:39:04.647Z,662.80
2023-04-20T22:41:34.514Z,664.55
2023-04-20T22:44:02.923Z,654.42
2023-04-20T22:46:31.344Z,670.97
2023-04-20T22:49:00.162Z,661.67
2023-04-20T22:51:29.014Z,692.53
2023-04-20T22:53:57.576Z,693.95
2023-04-20T22:56:26.105Z,651.40
2023-04-20T22:58:55.917Z,683.22
2023-04-20T23:01:24.390Z,692.30
2023-04-20T23:03:53.152Z,700.13
2023-04-20T23:06:22.093Z,661.00
2023-04-20T23:08:50.601Z,649.47
2023-04-20T23:11:20.741Z,663.83
2023-04-20T23:13:49.122Z,665.83
2023-04-20T23:16:18.916Z,688.47
2023-04-20T23:18:47.260Z,673.85
2023-04-20T23:21:15.665Z,662.55
2023-04-20T23:23:43.989Z,682.10
2023-04-20T23:26:12.349Z,670.65
2023-04-20T23:28:40.706Z,655.35
2023-04-20T23:31:09.083Z,691.53
2023-04-20T23:33:38.786Z,677.33
2023-04-20T23:36:07.732Z,685.67
2023-04-20T23:38:36.346Z,676.72
2023-04-20T23:41:10.183Z,673.13
2023-04-20T23:43:41.543Z,674.72
2023-04-20T23:46:10.564Z,673.90
2023-04-20T23:48:40.326Z,673.55
2023-04-20T23:51:08.678Z,663.47
2023-04-20T23:53:37.547Z,654.60
2023-04-20T23:56:06.591Z,650.28
2023-04-20T23:58:34.976Z,659.10
